sensor_id;sensor_type;location;lat;lon;timestamp;temperature;humidity
15656;DHT22;7928;43.614;1.456;2023-04-25T00:00:58;14.50;99.90
15656;DHT22;7928;43.614;1.456;2023-04-25T00:03:25;14.50;99.90
15656;DHT22;7928;43.614;1.456;2023-04-25T00:05:52;14.50;99.90
15656;DHT22;7928;43.614;1.456;2023-04-25T00:08:22;14.50;99.90
15656;DHT22;7928;43.614;1.456;2023-04-25T00:10:49;14.50;99.90
15656;DHT22;7928;43.614;1.456;2023-04-25T00:13:16;14.50;99.90
15656;DHT22;7928;43.614;1.456;2023-04-25T00:15:45;14.50;99.90
15656;DHT22;7928;43.614;1.456;2023-04-25T00:18:15;14.50;99.90
15656;DHT22;7928;43.614;1.456;2023-04-25T00:20:43;14.50;99.90
15656;DHT22;7928;43.614;1.456;2023-04-25T00:23:12;14.60;99.90
15656;DHT22;7928;43.614;1.456;2023-04-25T00:25:43;14.60;99.90
15656;DHT22;7928;43.614;1.456;2023-04-25T00:28:10;14.60;99.90
15656;DHT22;7928;43.614;1.456;2023-04-25T00:30:38;14.60;99.90
15656;DHT22;7928;43.614;1.456;2023-04-25T00:33:05;14.60;99.90
15656;DHT22;7928;43.614;1.456;2023-04-25T00:35:34;14.60;99.90
15656;DHT22;7928;43.614;1.456;2023-04-25T00:38:01;14.60;99.90
15656;DHT22;7928;43.614;1.456;2023-04-25T00:40:28;14.60;99.90
15656;DHT22;7928;43.614;1.456;2023-04-25T00:42:55;14.60;99.90
15656;DHT22;7928;43.614;1.456;2023-04-25T00:45:27;14.70;99.90
15656;DHT22;7928;43.614;1.456;2023-04-25T00:47:54;14.60;99.90
15656;DHT22;7928;43.614;1.456;2023-04-25T00:50:22;14.70;99.90
15656;DHT22;7928;43.614;1.456;2023-04-25T00:52:50;14.70;99.90
15656;DHT22;7928;43.614;1.456;2023-04-25T00:55:17;14.70;99.90
15656;DHT22;7928;43.614;1.456;2023-04-25T00:57:44;14.70;99.90
15656;DHT22;7928;43.614;1.456;2023-04-25T01:00:13;14.70;99.90
15656;DHT22;7928;43.614;1.456;2023-04-25T01:02:40;14.60;99.90
15656;DHT22;7928;43.614;1.456;2023-04-25T01:05:08;14.60;99.90
15656;DHT22;7928;43.614;1.456;2023-04-25T01:07:35;14.60;99.90
15656;DHT22;7928;43.614;1.456;2023-04-25T01:10:05;14.60;99.90
15656;DHT22;7928;43.614;1.456;2023-04-25T01:12:33;14.60;99.90
15656;DHT22;7928;43.614;1.456;2023-04-25T01:15:00;14.60;99.90
15656;DHT22;7928;43.614;1.456;2023-04-25T01:17:28;14.60;99.90
15656;DHT22;7928;43.614;1.456;2023-04-25T01:19:57;14.60;99.90
15656;DHT22;7928;43.614;1.456;2023-04-25T01:22:25;14.60;99.90
15656;DHT22;7928;43.614;1.456;2023-04-25T01:24:52;14.60;99.90
15656;DHT22;7928;43.614;1.456;2023-04-25T01:27:20;14.60;99.90
15656;DHT22;7928;43.614;1.456;2023-04-25T01:29:49;14.60;99.90
15656;DHT22;7928;43.614;1.456;2023-04-25T01:32:16;14.60;99.90
15656;DHT22;7928;43.614;1.456;2023-04-25T01:34:44;14.60;99.90
15656;DHT22;7928;43.614;1.456;2023-04-25T01:37:11;14.60;99.90
15656;DHT22;7928;43.614;1.456;2023-04-25T01:39:39;14.60;99.90
15656;DHT22;7928;43.614;1.456;2023-04-25T01:42:07;14.60;99.90
15656;DHT22;7928;43.614;1.456;2023-04-25T01:44:34;14.60;99.90
15656;DHT22;7928;43.614;1.456;2023-04-25T01:47:01;14.50;99.90
15656;DHT22;7928;43.614;1.456;2023-04-25T01:49:28;14.50;99.90
15656;DHT22;7928;43.614;1.456;2023-04-25T01:51:55;14.40;99.90
15656;DHT22;7928;43.614;1.456;2023-04-25T01:54:22;14.40;99.90
15656;DHT22;7928;43.614;1.456;2023-04-25T01:56:51;14.40;99.90
15656;DHT22;7928;43.614;1.456;2023-04-25T01:59:18;14.40;99.90
15656;DHT22;7928;43.614;1.456;2023-04-25T02:01:47;14.50;99.90
15656;DHT22;7928;43.614;1.456;2023-04-25T02:04:14;14.50;99.90
15656;DHT22;7928;43.614;1.456;2023-04-25T02:06:41;14.50;99.90
15656;DHT22;7928;43.614;1.456;2023-04-25T02:09:08;14.50;99.90
15656;DHT22;7928;43.614;1.456;2023-04-25T02:11:35;14.50;99.90
15656;DHT22;7928;43.614;1.456;2023-04-25T02:14:03;14.50;99.90
15656;DHT22;7928;43.614;1.456;2023-04-25T02:16:30;14.50;99.90
15656;DHT22;7928;43.614;1.456;2023-04-25T02:18:57;14.50;99.90
15656;DHT22;7928;43.614;1.456;2023-04-25T02:21:24;14.50;99.90
15656;DHT22;7928;43.614;1.456;2023-04-25T02:23:52;14.50;99.90
15656;DHT22;7928;43.614;1.456;2023-04-25T02:26:19;14.50;99.90
15656;DHT22;7928;43.614;1.456;2023-04-25T02:28:47;14.50;99.90
15656;DHT22;7928;43.614;1.456;2023-04-25T02:31:16;14.50;99.90
15656;DHT22;7928;43.614;1.456;2023-04-25T02:33:43;14.50;99.90
15656;DHT22;7928;43.614;1.456;2023-04-25T02:36:10;14.40;99.90
15656;DHT22;7928;43.614;1.456;2023-04-25T02:38:38;14.50;99.90
15656;DHT22;7928;43.614;1.456;2023-04-25T02:41:05;14.40;99.90
15656;DHT22;7928;43.614;1.456;2023-04-25T02:43:32;14.40;99.90
15656;DHT22;7928;43.614;1.456;2023-04-25T02:45:59;14.40;99.90
15656;DHT22;7928;43.614;1.456;2023-04-25T02:48:27;14.50;99.90
15656;DHT22;7928;43.614;1.456;2023-04-25T02:50:54;14.50;99.90
15656;DHT22;7928;43.614;1.456;2023-04-25T02:53:21;14.50;99.90
15656;DHT22;7928;43.614;1.456;2023-04-25T02:55:48;14.50;99.90
15656;DHT22;7928;43.614;1.456;2023-04-25T02:58:18;14.50;99.90
15656;DHT22;7928;43.614;1.456;2023-04-25T03:00:45;14.50;99.90
15656;DHT22;7928;43.614;1.456;2023-04-25T03:03:12;14.60;99.90
15656;DHT22;7928;43.614;1.456;2023-04-25T03:05:40;14.50;99.90
15656;DHT22;7928;43.614;1.456;2023-04-25T03:08:07;14.50;99.90
15656;DHT22;7928;43.614;1.456;2023-04-25T03:10:34;14.60;99.90
15656;DHT22;7928;43.614;1.456;2023-04-25T03:13:01;14.50;99.90
15656;DHT22;7928;43.614;1.456;2023-04-25T03:15:28;14.50;99.90
15656;DHT22;7928;43.614;1.456;2023-04-25T03:17:56;14.50;99.90
15656;DHT22;7928;43.614;1.456;2023-04-25T03:20:23;14.60;99.90
15656;DHT22;7928;43.614;1.456;2023-04-25T03:22:52;14.60;99.90
15656;DHT22;7928;43.614;1.456;2023-04-25T03:25:19;14.60;99.90
15656;DHT22;7928;43.614;1.456;2023-04-25T03:27:46;14.50;99.90
15656;DHT22;7928;43.614;1.456;2023-04-25T03:30:13;14.50;99.90
15656;DHT22;7928;43.614;1.456;2023-04-25T03:32:40;14.50;99.90
15656;DHT22;7928;43.614;1.456;2023-04-25T03:35:07;14.50;99.90
15656;DHT22;7928;43.614;1.456;2023-04-25T03:37:34;14.50;99.90
15656;DHT22;7928;43.614;1.456;2023-04-25T03:40:04;14.50;99.90
15656;DHT22;7928;43.614;1.456;2023-04-25T03:42:31;14.50;99.90
15656;DHT22;7928;43.614;1.456;2023-04-25T03:44:58;14.50;99.90
15656;DHT22;7928;43.614;1.456;2023-04-25T03:47:25;14.40;99.90
15656;DHT22;7928;43.614;1.456;2023-04-25T03:49:52;14.40;99.90
15656;DHT22;7928;43.614;1.456;2023-04-25T03:52:19;14.40;99.90
15656;DHT22;7928;43.614;1.456;2023-04-25T03:54:46;14.30;99.90
15656;DHT22;7928;43.614;1.456;2023-04-25T03:57:14;14.30;99.90
15656;DHT22;7928;43.614;1.456;2023-04-25T03:59:41;14.40;99.90
15656;DHT22;7928;43.614;1.456;2023-04-25T04:02:08;14.30;99.90
15656;DHT22;7928;43.614;1.456;2023-04-25T04:04:35;14.30;99.90
15656;DHT22;7928;43.614;1.456;2023-04-25T04:07:02;14.30;99.90
15656;DHT22;7928;43.614;1.456;2023-04-25T04:09:29;14.20;99.90
15656;DHT22;7928;43.614;1.456;2023-04-25T04:11:56;14.20;99.90
15656;DHT22;7928;43.614;1.456;2023-04-25T04:14:25;14.20;99.90
15656;DHT22;7928;43.614;1.456;2023-04-25T04:16:52;14.30;99.90
15656;DHT22;7928;43.614;1.456;2023-04-25T04:19:19;14.30;99.90
15656;DHT22;7928;43.614;1.456;2023-04-25T04:21:46;14.30;99.90
15656;DHT22;7928;43.614;1.456;2023-04-25T04:24:13;14.30;99.90
15656;DHT22;7928;43.614;1.456;2023-04-25T04:26:40;14.30;99.90
15656;DHT22;7928;43.614;1.456;2023-04-25T04:29:10;14.30;99.90
15656;DHT22;7928;43.614;1.456;2023-04-25T04:31:38;14.30;99.90
15656;DHT22;7928;43.614;1.456;2023-04-25T04:34:05;14.30;99.90
15656;DHT22;7928;43.614;1.456;2023-04-25T04:36:32;14.30;99.90
15656;DHT22;7928;43.614;1.456;2023-04-25T04:38:59;14.30;99.90
15656;DHT22;7928;43.614;1.456;2023-04-25T04:41:27;14.20;99.90
15656;DHT22;7928;43.614;1.456;2023-04-25T04:43:54;14.20;99.90
15656;DHT22;7928;43.614;1.456;2023-04-25T04:46:21;14.30;99.90
15656;DHT22;7928;43.614;1.456;2023-04-25T04:48:51;14.30;99.90
15656;DHT22;7928;43.614;1.456;2023-04-25T04:51:19;14.30;99.90
15656;DHT22;7928;43.614;1.456;2023-04-25T04:53:46;14.30;99.90
15656;DHT22;7928;43.614;1.456;2023-04-25T04:56:13;14.30;99.90
15656;DHT22;7928;43.614;1.456;2023-04-25T04:58:40;14.30;99.90
15656;DHT22;7928;43.614;1.456;2023-04-25T05:01:07;14.30;99.90
15656;DHT22;7928;43.614;1.456;2023-04-25T05:03:34;14.40;99.90
15656;DHT22;7928;43.614;1.456;2023-04-25T05:06:03;14.40;99.90
15656;DHT22;7928;43.614;1.456;2023-04-25T05:08:30;14.40;99.90
15656;DHT22;7928;43.614;1.456;2023-04-25T05:10:57;14.40;99.90
15656;DHT22;7928;43.614;1.456;2023-04-25T05:13:24;14.50;99.90
15656;DHT22;7928;43.614;1.456;2023-04-25T05:15:51;14.50;99.90
15656;DHT22;7928;43.614;1.456;2023-04-25T05:18:18;14.40;99.90
15656;DHT22;7928;43.614;1.456;2023-04-25T05:20:45;14.50;99.90
15656;DHT22;7928;43.614;1.456;2023-04-25T05:23:14;14.50;99.90
15656;DHT22;7928;43.614;1.456;2023-04-25T05:25:41;14.50;99.90
15656;DHT22;7928;43.614;1.456;2023-04-25T05:28:10;14.50;99.90
15656;DHT22;7928;43.614;1.456;2023-04-25T05:30:37;14.60;99.90
15656;DHT22;7928;43.614;1.456;2023-04-25T05:33:04;14.60;99.90
15656;DHT22;7928;43.614;1.456;2023-04-25T05:35:32;14.60;99.90
15656;DHT22;7928;43.614;1.456;2023-04-25T05:37:59;14.60;99.90
15656;DHT22;7928;43.614;1.456;2023-04-25T05:40:27;14.60;99.90
15656;DHT22;7928;43.614;1.456;2023-04-25T05:42:54;14.60;99.90
15656;DHT22;7928;43.614;1.456;2023-04-25T05:45:21;14.70;99.90
15656;DHT22;7928;43.614;1.456;2023-04-25T05:47:48;14.70;99.90
15656;DHT22;7928;43.614;1.456;2023-04-25T05:50:15;14.70;99.90
15656;DHT22;7928;43.614;1.456;2023-04-25T05:52:42;14.70;99.90
15656;DHT22;7928;43.614;1.456;2023-04-25T05:55:09;14.80;99.90
15656;DHT22;7928;43.614;1.456;2023-04-25T05:57:38;14.80;99.90
15656;DHT22;7928;43.614;1.456;2023-04-25T06:00:08;14.80;99.90
15656;DHT22;7928;43.614;1.456;2023-04-25T06:02:35;14.80;99.90
15656;DHT22;7928;43.614;1.456;2023-04-25T06:05:02;14.90;99.90
15656;DHT22;7928;43.614;1.456;2023-04-25T06:07:30;14.90;99.90
15656;DHT22;7928;43.614;1.456;2023-04-25T06:09:57;14.90;99.90
15656;DHT22;7928;43.614;1.456;2023-04-25T06:12:25;14.90;99.90
15656;DHT22;7928;43.614;1.456;2023-04-25T06:14:53;14.90;99.90
15656;DHT22;7928;43.614;1.456;2023-04-25T06:17:20;14.90;99.90
15656;DHT22;7928;43.614;1.456;2023-04-25T06:19:47;14.90;99.90
15656;DHT22;7928;43.614;1.456;2023-04-25T06:22:14;14.90;99.90
15656;DHT22;7928;43.614;1.456;2023-04-25T06:24:41;15.00;99.90
15656;DHT22;7928;43.614;1.456;2023-04-25T06:27:08;15.10;99.90
15656;DHT22;7928;43.614;1.456;2023-04-25T06:29:35;15.10;99.90
15656;DHT22;7928;43.614;1.456;2023-04-25T06:32:04;15.10;99.90
15656;DHT22;7928;43.614;1.456;2023-04-25T06:34:31;15.20;99.90
15656;DHT22;7928;43.614;1.456;2023-04-25T06:36:58;15.30;99.90
15656;DHT22;7928;43.614;1.456;2023-04-25T06:39:25;15.40;99.90
15656;DHT22;7928;43.614;1.456;2023-04-25T06:41:51;15.50;99.90
15656;DHT22;7928;43.614;1.456;2023-04-25T06:44:19;15.60;99.90
15656;DHT22;7928;43.614;1.456;2023-04-25T06:46:46;15.70;99.90
15656;DHT22;7928;43.614;1.456;2023-04-25T06:49:15;15.80;99.90
15656;DHT22;7928;43.614;1.456;2023-04-25T06:51:42;15.80;99.90
15656;DHT22;7928;43.614;1.456;2023-04-25T06:54:09;15.90;99.90
15656;DHT22;7928;43.614;1.456;2023-04-25T06:56:36;16.00;99.90
15656;DHT22;7928;43.614;1.456;2023-04-25T06:59:03;15.90;99.90
15656;DHT22;7928;43.614;1.456;2023-04-25T07:01:30;15.90;99.90
15656;DHT22;7928;43.614;1.456;2023-04-25T07:03:57;15.90;99.90
15656;DHT22;7928;43.614;1.456;2023-04-25T07:06:25;15.80;99.90
15656;DHT22;7928;43.614;1.456;2023-04-25T07:08:53;15.70;99.90
15656;DHT22;7928;43.614;1.456;2023-04-25T07:11:21;15.70;99.90
15656;DHT22;7928;43.614;1.456;2023-04-25T07:13:48;15.70;99.90
15656;DHT22;7928;43.614;1.456;2023-04-25T07:16:16;15.70;99.90
15656;DHT22;7928;43.614;1.456;2023-04-25T07:18:43;15.70;99.90
15656;DHT22;7928;43.614;1.456;2023-04-25T07:21:10;15.60;99.90
15656;DHT22;7928;43.614;1.456;2023-04-25T07:23:38;15.50;99.90
15656;DHT22;7928;43.614;1.456;2023-04-25T07:26:06;15.30;99.90
15656;DHT22;7928;43.614;1.456;2023-04-25T07:28:34;15.10;99.90
15656;DHT22;7928;43.614;1.456;2023-04-25T07:31:01;15.00;99.90
15656;DHT22;7928;43.614;1.456;2023-04-25T07:33:29;14.90;99.90
15656;DHT22;7928;43.614;1.456;2023-04-25T07:35:56;14.90;99.90
15656;DHT22;7928;43.614;1.456;2023-04-25T07:38:23;14.90;99.90
15656;DHT22;7928;43.614;1.456;2023-04-25T07:40:51;14.90;99.90
15656;DHT22;7928;43.614;1.456;2023-04-25T07:43:18;15.00;99.90
15656;DHT22;7928;43.614;1.456;2023-04-25T07:45:46;15.00;99.90
15656;DHT22;7928;43.614;1.456;2023-04-25T07:48:16;15.10;99.90
15656;DHT22;7928;43.614;1.456;2023-04-25T07:50:44;15.10;99.90
15656;DHT22;7928;43.614;1.456;2023-04-25T07:53:11;15.10;99.90
15656;DHT22;7928;43.614;1.456;2023-04-25T07:55:38;15.10;99.90
15656;DHT22;7928;43.614;1.456;2023-04-25T07:58:07;15.10;99.90
15656;DHT22;7928;43.614;1.456;2023-04-25T08:00:34;15.00;99.90
15656;DHT22;7928;43.614;1.456;2023-04-25T08:03:01;14.90;99.90
15656;DHT22;7928;43.614;1.456;2023-04-25T08:05:29;14.80;99.90
15656;DHT22;7928;43.614;1.456;2023-04-25T08:07:56;14.70;99.90
15656;DHT22;7928;43.614;1.456;2023-04-25T08:10:23;14.60;99.90
15656;DHT22;7928;43.614;1.456;2023-04-25T08:12:50;14.60;99.90
15656;DHT22;7928;43.614;1.456;2023-04-25T08:15:18;14.50;99.90
15656;DHT22;7928;43.614;1.456;2023-04-25T08:17:45;14.50;99.90
15656;DHT22;7928;43.614;1.456;2023-04-25T08:20:12;14.50;99.90
15656;DHT22;7928;43.614;1.456;2023-04-25T08:22:39;14.50;99.90
15656;DHT22;7928;43.614;1.456;2023-04-25T08:25:07;14.60;99.90
15656;DHT22;7928;43.614;1.456;2023-04-25T08:27:34;14.70;99.90
15656;DHT22;7928;43.614;1.456;2023-04-25T08:30:01;14.90;99.90
15656;DHT22;7928;43.614;1.456;2023-04-25T08:32:30;15.10;99.90
15656;DHT22;7928;43.614;1.456;2023-04-25T08:34:57;15.20;99.90
15656;DHT22;7928;43.614;1.456;2023-04-25T08:37:24;15.30;99.90
15656;DHT22;7928;43.614;1.456;2023-04-25T08:39:51;15.40;99.90
15656;DHT22;7928;43.614;1.456;2023-04-25T08:42:19;15.40;99.90
15656;DHT22;7928;43.614;1.456;2023-04-25T08:44:49;15.40;99.90
15656;DHT22;7928;43.614;1.456;2023-04-25T08:47:16;15.50;99.90
15656;DHT22;7928;43.614;1.456;2023-04-25T08:49:46;15.40;99.90
15656;DHT22;7928;43.614;1.456;2023-04-25T08:52:13;15.50;99.90
15656;DHT22;7928;43.614;1.456;2023-04-25T08:54:43;15.50;99.90
15656;DHT22;7928;43.614;1.456;2023-04-25T08:57:14;15.50;99.90
15656;DHT22;7928;43.614;1.456;2023-04-25T08:59:42;15.50;99.90
15656;DHT22;7928;43.614;1.456;2023-04-25T09:02:11;15.50;99.90
15656;DHT22;7928;43.614;1.456;2023-04-25T09:04:40;15.50;99.90
15656;DHT22;7928;43.614;1.456;2023-04-25T09:07:08;15.60;99.90
15656;DHT22;7928;43.614;1.456;2023-04-25T09:09:36;15.70;99.90
15656;DHT22;7928;43.614;1.456;2023-04-25T09:12:03;15.80;99.90
15656;DHT22;7928;43.614;1.456;2023-04-25T09:14:31;15.80;99.90
15656;DHT22;7928;43.614;1.456;2023-04-25T09:17:00;15.70;99.90
15656;DHT22;7928;43.614;1.456;2023-04-25T09:19:29;15.80;99.90
15656;DHT22;7928;43.614;1.456;2023-04-25T09:21:59;15.80;99.90
15656;DHT22;7928;43.614;1.456;2023-04-25T09:24:33;16.00;99.90
15656;DHT22;7928;43.614;1.456;2023-04-25T09:27:03;16.10;99.90
15656;DHT22;7928;43.614;1.456;2023-04-25T09:29:31;16.10;99.90
15656;DHT22;7928;43.614;1.456;2023-04-25T09:32:17;15.90;99.90
15656;DHT22;7928;43.614;1.456;2023-04-25T09:34:46;15.70;99.90
15656;DHT22;7928;43.614;1.456;2023-04-25T09:37:18;15.60;99.90
15656;DHT22;7928;43.614;1.456;2023-04-25T09:39:47;15.50;99.90
15656;DHT22;7928;43.614;1.456;2023-04-25T09:42:15;15.40;99.90
15656;DHT22;7928;43.614;1.456;2023-04-25T09:44:43;15.30;99.90
15656;DHT22;7928;43.614;1.456;2023-04-25T09:47:11;15.20;99.90
15656;DHT22;7928;43.614;1.456;2023-04-25T09:49:40;15.30;99.90
15656;DHT22;7928;43.614;1.456;2023-04-25T09:52:09;15.30;99.90
15656;DHT22;7928;43.614;1.456;2023-04-25T09:54:36;15.30;99.90
15656;DHT22;7928;43.614;1.456;2023-04-25T09:57:10;15.30;99.90
15656;DHT22;7928;43.614;1.456;2023-04-25T09:59:39;15.40;99.90
15656;DHT22;7928;43.614;1.456;2023-04-25T10:02:09;15.40;99.90
15656;DHT22;7928;43.614;1.456;2023-04-25T10:04:38;15.30;99.90
15656;DHT22;7928;43.614;1.456;2023-04-25T10:07:06;15.30;99.90
15656;DHT22;7928;43.614;1.456;2023-04-25T10:09:33;15.30;99.90
15656;DHT22;7928;43.614;1.456;2023-04-25T10:12:05;15.30;99.90
15656;DHT22;7928;43.614;1.456;2023-04-25T10:14:32;15.40;99.90
15656;DHT22;7928;43.614;1.456;2023-04-25T10:17:00;15.40;99.90
15656;DHT22;7928;43.614;1.456;2023-04-25T10:19:27;15.40;99.90
15656;DHT22;7928;43.614;1.456;2023-04-25T10:22:00;15.40;99.90
15656;DHT22;7928;43.614;1.456;2023-04-25T10:24:28;15.60;99.90
15656;DHT22;7928;43.614;1.456;2023-04-25T10:26:56;16.00;99.90
15656;DHT22;7928;43.614;1.456;2023-04-25T10:29:26;16.20;99.90
15656;DHT22;7928;43.614;1.456;2023-04-25T10:31:53;16.40;99.90
15656;DHT22;7928;43.614;1.456;2023-04-25T10:34:24;16.60;99.90
15656;DHT22;7928;43.614;1.456;2023-04-25T10:37:03;16.60;99.90
15656;DHT22;7928;43.614;1.456;2023-04-25T10:39:32;16.50;99.90
15656;DHT22;7928;43.614;1.456;2023-04-25T10:42:02;16.50;99.90
15656;DHT22;7928;43.614;1.456;2023-04-25T10:44:31;16.30;99.90
15656;DHT22;7928;43.614;1.456;2023-04-25T10:46:59;16.30;99.90
15656;DHT22;7928;43.614;1.456;2023-04-25T10:49:32;16.10;99.90
15656;DHT22;7928;43.614;1.456;2023-04-25T10:52:18;16.10;99.90
15656;DHT22;7928;43.614;1.456;2023-04-25T10:54:52;16.20;99.90
15656;DHT22;7928;43.614;1.456;2023-04-25T10:57:36;16.20;99.90
15656;DHT22;7928;43.614;1.456;2023-04-25T11:00:11;16.20;99.90
15656;DHT22;7928;43.614;1.456;2023-04-25T11:02:41;16.30;99.90
15656;DHT22;7928;43.614;1.456;2023-04-25T11:05:12;16.30;99.90
15656;DHT22;7928;43.614;1.456;2023-04-25T11:07:50;16.30;99.90
15656;DHT22;7928;43.614;1.456;2023-04-25T11:10:17;16.40;99.90
15656;DHT22;7928;43.614;1.456;2023-04-25T11:12:45;16.60;99.90
15656;DHT22;7928;43.614;1.456;2023-04-25T11:15:14;16.80;99.90
15656;DHT22;7928;43.614;1.456;2023-04-25T11:17:41;16.90;99.90
15656;DHT22;7928;43.614;1.456;2023-04-25T11:20:10;16.70;99.90
15656;DHT22;7928;43.614;1.456;2023-04-25T11:22:39;16.90;99.90
15656;DHT22;7928;43.614;1.456;2023-04-25T11:25:08;17.40;99.90
15656;DHT22;7928;43.614;1.456;2023-04-25T11:27:38;17.50;99.90
15656;DHT22;7928;43.614;1.456;2023-04-25T11:30:15;17.70;99.90
15656;DHT22;7928;43.614;1.456;2023-04-25T11:32:42;17.80;99.90
15656;DHT22;7928;43.614;1.456;2023-04-25T11:35:09;18.00;99.90
15656;DHT22;7928;43.614;1.456;2023-04-25T11:37:38;18.10;99.90
15656;DHT22;7928;43.614;1.456;2023-04-25T11:40:06;18.10;99.90
15656;DHT22;7928;43.614;1.456;2023-04-25T11:42:36;18.10;99.90
15656;DHT22;7928;43.614;1.456;2023-04-25T11:45:05;18.10;99.90
15656;DHT22;7928;43.614;1.456;2023-04-25T11:47:33;18.10;99.90
15656;DHT22;7928;43.614;1.456;2023-04-25T11:50:02;17.90;99.90
15656;DHT22;7928;43.614;1.456;2023-04-25T11:52:36;18.10;99.90
15656;DHT22;7928;43.614;1.456;2023-04-25T11:55:05;17.90;99.90
15656;DHT22;7928;43.614;1.456;2023-04-25T11:57:33;18.00;99.90
15656;DHT22;7928;43.614;1.456;2023-04-25T12:00:11;18.20;99.90
15656;DHT22;7928;43.614;1.456;2023-04-25T12:02:42;18.20;99.90
15656;DHT22;7928;43.614;1.456;2023-04-25T12:05:10;18.00;99.90
15656;DHT22;7928;43.614;1.456;2023-04-25T12:07:38;18.30;99.90
15656;DHT22;7928;43.614;1.456;2023-04-25T12:10:06;18.30;99.90
15656;DHT22;7928;43.614;1.456;2023-04-25T12:12:34;18.30;99.90
15656;DHT22;7928;43.614;1.456;2023-04-25T12:15:09;18.30;99.90
15656;DHT22;7928;43.614;1.456;2023-04-25T12:17:36;18.40;99.90
15656;DHT22;7928;43.614;1.456;2023-04-25T12:20:10;18.60;99.90
15656;DHT22;7928;43.614;1.456;2023-04-25T12:22:40;18.70;99.90
15656;DHT22;7928;43.614;1.456;2023-04-25T12:25:10;18.80;99.90
15656;DHT22;7928;43.614;1.456;2023-04-25T12:27:37;18.80;99.90
15656;DHT22;7928;43.614;1.456;2023-04-25T12:30:06;18.70;99.90
15656;DHT22;7928;43.614;1.456;2023-04-25T12:32:35;18.60;99.90
15656;DHT22;7928;43.614;1.456;2023-04-25T12:35:02;18.80;99.90
15656;DHT22;7928;43.614;1.456;2023-04-25T12:37:30;18.80;99.90
15656;DHT22;7928;43.614;1.456;2023-04-25T12:39:57;18.60;99.90
15656;DHT22;7928;43.614;1.456;2023-04-25T12:42:24;18.60;99.90
15656;DHT22;7928;43.614;1.456;2023-04-25T12:44:51;18.50;99.90
15656;DHT22;7928;43.614;1.456;2023-04-25T12:47:18;18.40;99.90
15656;DHT22;7928;43.614;1.456;2023-04-25T12:49:45;18.40;99.90
15656;DHT22;7928;43.614;1.456;2023-04-25T12:52:12;18.30;99.90
15656;DHT22;7928;43.614;1.456;2023-04-25T12:54:40;18.30;99.90
15656;DHT22;7928;43.614;1.456;2023-04-25T12:57:07;18.30;99.90
15656;DHT22;7928;43.614;1.456;2023-04-25T12:59:34;18.40;99.90
15656;DHT22;7928;43.614;1.456;2023-04-25T13:02:01;18.30;99.90
15656;DHT22;7928;43.614;1.456;2023-04-25T13:04:28;18.30;99.90
15656;DHT22;7928;43.614;1.456;2023-04-25T13:06:55;18.10;99.90
15656;DHT22;7928;43.614;1.456;2023-04-25T13:09:22;18.10;99.90
15656;DHT22;7928;43.614;1.456;2023-04-25T13:11:51;17.90;99.90
15656;DHT22;7928;43.614;1.456;2023-04-25T13:14:18;17.70;99.90
15656;DHT22;7928;43.614;1.456;2023-04-25T13:16:45;17.60;99.90
15656;DHT22;7928;43.614;1.456;2023-04-25T13:19:12;17.60;99.90
15656;DHT22;7928;43.614;1.456;2023-04-25T13:21:39;17.50;99.90
15656;DHT22;7928;43.614;1.456;2023-04-25T13:24:06;17.50;99.90
15656;DHT22;7928;43.614;1.456;2023-04-25T13:26:33;17.60;99.90
15656;DHT22;7928;43.614;1.456;2023-04-25T13:29:02;17.80;99.90
15656;DHT22;7928;43.614;1.456;2023-04-25T13:31:31;18.00;99.90
15656;DHT22;7928;43.614;1.456;2023-04-25T13:33:58;17.80;99.90
15656;DHT22;7928;43.614;1.456;2023-04-25T13:36:25;17.80;99.90
15656;DHT22;7928;43.614;1.456;2023-04-25T13:38:53;17.70;99.90
15656;DHT22;7928;43.614;1.456;2023-04-25T13:41:20;17.70;99.90
15656;DHT22;7928;43.614;1.456;2023-04-25T13:43:47;18.00;99.90
15656;DHT22;7928;43.614;1.456;2023-04-25T13:46:15;18.20;99.90
15656;DHT22;7928;43.614;1.456;2023-04-25T13:48:42;18.60;99.90
15656;DHT22;7928;43.614;1.456;2023-04-25T13:51:14;18.90;99.90
15656;DHT22;7928;43.614;1.456;2023-04-25T13:53:42;19.10;99.90
15656;DHT22;7928;43.614;1.456;2023-04-25T13:56:09;19.10;99.90
15656;DHT22;7928;43.614;1.456;2023-04-25T13:58:37;18.90;99.90
15656;DHT22;7928;43.614;1.456;2023-04-25T14:01:04;18.60;99.90
15656;DHT22;7928;43.614;1.456;2023-04-25T14:03:32;18.20;99.90
15656;DHT22;7928;43.614;1.456;2023-04-25T14:05:59;18.00;99.90
15656;DHT22;7928;43.614;1.456;2023-04-25T14:08:26;17.90;99.90
15656;DHT22;7928;43.614;1.456;2023-04-25T14:10:54;17.80;99.90
15656;DHT22;7928;43.614;1.456;2023-04-25T14:13:21;17.60;99.90
15656;DHT22;7928;43.614;1.456;2023-04-25T14:15:49;17.60;99.90
15656;DHT22;7928;43.614;1.456;2023-04-25T14:18:17;17.60;99.90
15656;DHT22;7928;43.614;1.456;2023-04-25T14:20:46;17.60;99.90
15656;DHT22;7928;43.614;1.456;2023-04-25T14:23:13;17.70;99.90
15656;DHT22;7928;43.614;1.456;2023-04-25T14:25:40;17.80;99.90
15656;DHT22;7928;43.614;1.456;2023-04-25T14:28:09;17.80;99.90
15656;DHT22;7928;43.614;1.456;2023-04-25T14:30:37;17.80;99.90
15656;DHT22;7928;43.614;1.456;2023-04-25T14:33:05;17.90;99.90
15656;DHT22;7928;43.614;1.456;2023-04-25T14:35:33;18.20;99.90
15656;DHT22;7928;43.614;1.456;2023-04-25T14:38:02;18.60;99.90
15656;DHT22;7928;43.614;1.456;2023-04-25T14:40:29;18.50;99.90
15656;DHT22;7928;43.614;1.456;2023-04-25T14:42:56;18.30;99.90
15656;DHT22;7928;43.614;1.456;2023-04-25T14:45:23;18.00;99.90
15656;DHT22;7928;43.614;1.456;2023-04-25T14:47:50;18.10;99.90
15656;DHT22;7928;43.614;1.456;2023-04-25T14:50:18;18.00;99.90
15656;DHT22;7928;43.614;1.456;2023-04-25T14:52:45;18.00;99.90
15656;DHT22;7928;43.614;1.456;2023-04-25T14:55:13;18.10;99.90
15656;DHT22;7928;43.614;1.456;2023-04-25T14:57:40;18.10;99.90
15656;DHT22;7928;43.614;1.456;2023-04-25T15:00:08;17.90;99.90
15656;DHT22;7928;43.614;1.456;2023-04-25T15:02:37;17.80;99.90
15656;DHT22;7928;43.614;1.456;2023-04-25T15:05:05;17.70;99.90
15656;DHT22;7928;43.614;1.456;2023-04-25T15:07:32;17.60;99.90
15656;DHT22;7928;43.614;1.456;2023-04-25T15:10:00;17.50;99.90
15656;DHT22;7928;43.614;1.456;2023-04-25T15:12:29;17.30;99.90
15656;DHT22;7928;43.614;1.456;2023-04-25T15:14:56;17.30;99.90
15656;DHT22;7928;43.614;1.456;2023-04-25T15:17:23;17.10;99.90
15656;DHT22;7928;43.614;1.456;2023-04-25T15:19:50;17.10;99.90
15656;DHT22;7928;43.614;1.456;2023-04-25T15:22:17;17.10;99.90
15656;DHT22;7928;43.614;1.456;2023-04-25T15:24:45;17.20;99.90
15656;DHT22;7928;43.614;1.456;2023-04-25T15:27:12;17.30;99.90
15656;DHT22;7928;43.614;1.456;2023-04-25T15:29:41;17.40;99.90
15656;DHT22;7928;43.614;1.456;2023-04-25T15:32:08;17.40;99.90
15656;DHT22;7928;43.614;1.456;2023-04-25T15:34:35;17.40;99.90
15656;DHT22;7928;43.614;1.456;2023-04-25T15:37:02;17.40;99.90
15656;DHT22;7928;43.614;1.456;2023-04-25T15:39:29;17.50;99.90
15656;DHT22;7928;43.614;1.456;2023-04-25T15:41:56;17.30;99.90
15656;DHT22;7928;43.614;1.456;2023-04-25T15:44:23;17.30;99.90
15656;DHT22;7928;43.614;1.456;2023-04-25T15:46:52;17.30;99.90
15656;DHT22;7928;43.614;1.456;2023-04-25T15:49:19;17.30;99.90